sensor_id;sensor_type;location;lat;lon;timestamp;pressure;altitude;pressure_sealevel;temperature;humidity
15646;BME280;7922;43.622;1.476;2023-01-26T00:00:22;100985.06;;;0.80;93.92
15646;BME280;7922;43.622;1.476;2023-01-26T00:02:47;100968.41;;;0.72;93.70
15646;BME280;7922;43.622;1.476;2023-01-26T00:05:12;100874.88;;;0.30;94.43
15646;BME280;7922;43.622;1.476;2023-01-26T00:07:38;100922.91;;;0.48;93.69
15646;BME280;7922;43.622;1.476;2023-01-26T00:10:03;100889.78;;;0.41;93.69
15646;BME280;7922;43.622;1.476;2023-01-26T00:12:29;100856.56;;;0.25;93.29
15646;BME280;7922;43.622;1.476;2023-01-26T00:14:54;100929.19;;;0.64;93.50
15646;BME280;7922;43.622;1.476;2023-01-26T00:17:20;101005.38;;;1.06;93.68
15646;BME280;7922;43.622;1.476;2023-01-26T00:19:45;100957.31;;;0.88;93.21
15646;BME280;7922;43.622;1.476;2023-01-26T00:22:10;100933.81;;;0.85;93.46
15646;BME280;7922;43.622;1.476;2023-01-26T00:24:35;100817.41;;;0.20;93.62
15646;BME280;7922;43.622;1.476;2023-01-26T00:27:01;100836.84;;;0.44;93.02
15646;BME280;7922;43.622;1.476;2023-01-26T00:29:26;100931.38;;;0.99;93.87
15646;BME280;7922;43.622;1.476;2023-01-26T00:31:51;100927.84;;;0.97;93.34
15646;BME280;7922;43.622;1.476;2023-01-26T00:34:16;100847.31;;;0.50;93.83
15646;BME280;7922;43.622;1.476;2023-01-26T00:36:42;100937.50;;;1.04;93.68
15646;BME280;7922;43.622;1.476;2023-01-26T00:39:07;100894.50;;;0.70;93.53
15646;BME280;7922;43.622;1.476;2023-01-26T00:41:32;100806.97;;;0.17;93.78
15646;BME280;7922;43.622;1.476;2023-01-26T00:43:58;100910.06;;;0.64;94.09
15646;BME280;7922;43.622;1.476;2023-01-26T00:46:23;100811.28;;;0.15;94.57
15646;BME280;7922;43.622;1.476;2023-01-26T00:48:49;100892.59;;;0.55;94.36
15646;BME280;7922;43.622;1.476;2023-01-26T00:51:14;100884.88;;;0.63;94.24
15646;BME280;7922;43.622;1.476;2023-01-26T00:53:39;100843.72;;;0.37;94.14
15646;BME280;7922;43.622;1.476;2023-01-26T00:56:05;100878.69;;;0.58;94.81
15646;BME280;7922;43.622;1.476;2023-01-26T00:58:30;100858.53;;;0.41;94.46
15646;BME280;7922;43.622;1.476;2023-01-26T01:00:55;100897.13;;;0.71;94.67
15646;BME280;7922;43.622;1.476;2023-01-26T01:03:21;100936.56;;;0.96;95.25
15646;BME280;7922;43.622;1.476;2023-01-26T01:05:46;100891.88;;;0.68;94.66
15646;BME280;7922;43.622;1.476;2023-01-26T01:08:11;100873.56;;;0.64;95.04
15646;BME280;7922;43.622;1.476;2023-01-26T01:10:36;100929.56;;;0.92;94.28
15646;BME280;7922;43.622;1.476;2023-01-26T01:13:02;100795.66;;;0.17;94.47
15646;BME280;7922;43.622;1.476;2023-01-26T01:15:27;100793.94;;;0.17;94.77
15646;BME280;7922;43.622;1.476;2023-01-26T01:17:52;100843.81;;;0.46;94.92
15646;BME280;7922;43.622;1.476;2023-01-26T01:20:18;100857.00;;;0.60;94.82
15646;BME280;7922;43.622;1.476;2023-01-26T01:22:43;100926.16;;;0.99;94.17
15646;BME280;7922;43.622;1.476;2023-01-26T01:25:08;100879.75;;;0.72;94.55
15646;BME280;7922;43.622;1.476;2023-01-26T01:27:33;100885.00;;;0.74;94.42
15646;BME280;7922;43.622;1.476;2023-01-26T01:29:59;100770.50;;;0.17;93.97
15646;BME280;7922;43.622;1.476;2023-01-26T01:32:24;100893.81;;;0.85;94.35
15646;BME280;7922;43.622;1.476;2023-01-26T01:34:49;100872.78;;;0.71;94.03
15646;BME280;7922;43.622;1.476;2023-01-26T01:37:15;100766.19;;;0.19;93.77
15646;BME280;7922;43.622;1.476;2023-01-26T01:39:41;100876.31;;;0.76;93.90
15646;BME280;7922;43.622;1.476;2023-01-26T01:42:07;100774.88;;;0.20;93.95
15646;BME280;7922;43.622;1.476;2023-01-26T01:44:37;100783.59;;;0.23;93.98
15646;BME280;7922;43.622;1.476;2023-01-26T01:47:09;100861.44;;;0.69;94.55
15646;BME280;7922;43.622;1.476;2023-01-26T01:49:45;100791.53;;;0.33;94.76
15646;BME280;7922;43.622;1.476;2023-01-26T01:54:44;100790.47;;;0.17;94.64
15646;BME280;7922;43.622;1.476;2023-01-26T01:57:18;100843.81;;;0.45;94.89
15646;BME280;7922;43.622;1.476;2023-01-26T01:59:49;100855.25;;;0.58;95.18
15646;BME280;7922;43.622;1.476;2023-01-26T02:02:17;100710.25;;;-0.10;94.89
15646;BME280;7922;43.622;1.476;2023-01-26T02:04:43;100810.75;;;0.41;94.71
15646;BME280;7922;43.622;1.476;2023-01-26T02:07:09;100779.22;;;0.21;94.84
15646;BME280;7922;43.622;1.476;2023-01-26T02:09:37;100878.91;;;0.75;94.57
15646;BME280;7922;43.622;1.476;2023-01-26T02:12:04;100923.63;;;1.08;94.95
15646;BME280;7922;43.622;1.476;2023-01-26T02:14:32;100812.44;;;0.39;94.76
15646;BME280;7922;43.622;1.476;2023-01-26T02:16:57;100739.00;;;-0.03;94.51
15646;BME280;7922;43.622;1.476;2023-01-26T02:19:45;100847.47;;;0.61;94.86
15646;BME280;7922;43.622;1.476;2023-01-26T02:23:10;100887.66;;;0.80;95.01
15646;BME280;7922;43.622;1.476;2023-01-26T02:25:29;100859.72;;;0.68;95.23
15646;BME280;7922;43.622;1.476;2023-01-26T02:27:57;100852.84;;;0.76;94.74
15646;BME280;7922;43.622;1.476;2023-01-26T02:30:23;100914.94;;;1.06;94.97
15646;BME280;7922;43.622;1.476;2023-01-26T02:32:49;100846.63;;;0.65;94.74
15646;BME280;7922;43.622;1.476;2023-01-26T02:35:14;100926.28;;;1.10;95.34
15646;BME280;7922;43.622;1.476;2023-01-26T02:37:39;100837.00;;;0.56;94.37
15646;BME280;7922;43.622;1.476;2023-01-26T02:40:12;100843.19;;;0.66;94.95
15646;BME280;7922;43.622;1.476;2023-01-26T02:42:40;100889.56;;;0.91;94.76
15646;BME280;7922;43.622;1.476;2023-01-26T02:45:07;100761.84;;;0.18;94.58
15646;BME280;7922;43.622;1.476;2023-01-26T02:47:33;100872.91;;;0.80;94.91
15646;BME280;7922;43.622;1.476;2023-01-26T02:49:58;100880.91;;;0.97;94.69
15646;BME280;7922;43.622;1.476;2023-01-26T02:52:26;100892.28;;;1.02;95.12
15646;BME280;7922;43.622;1.476;2023-01-26T02:54:52;100809.97;;;0.48;94.48
15646;BME280;7922;43.622;1.476;2023-01-26T02:57:18;100850.31;;;0.81;94.49
15646;BME280;7922;43.622;1.476;2023-01-26T02:59:43;100719.13;;;0.04;94.56
15646;BME280;7922;43.622;1.476;2023-01-26T03:02:08;100848.53;;;0.78;94.50
15646;BME280;7922;43.622;1.476;2023-01-26T03:04:34;100839.84;;;0.79;94.53
15646;BME280;7922;43.622;1.476;2023-01-26T03:06:59;100793.47;;;0.49;94.51
15646;BME280;7922;43.622;1.476;2023-01-26T03:09:25;100826.56;;;0.56;94.99
15646;BME280;7922;43.622;1.476;2023-01-26T03:11:50;100871.22;;;0.84;94.90
15646;BME280;7922;43.622;1.476;2023-01-26T03:14:16;100742.69;;;0.18;94.89
15646;BME280;7922;43.622;1.476;2023-01-26T03:16:41;100884.41;;;0.99;95.10
15646;BME280;7922;43.622;1.476;2023-01-26T03:19:09;100838.03;;;0.70;94.95
15646;BME280;7922;43.622;1.476;2023-01-26T03:21:35;100817.94;;;0.63;95.47
15646;BME280;7922;43.622;1.476;2023-01-26T03:24:01;100874.84;;;1.01;94.95
15646;BME280;7922;43.622;1.476;2023-01-26T03:26:26;100665.00;;;-0.18;95.33
15646;BME280;7922;43.622;1.476;2023-01-26T03:28:51;100812.00;;;0.74;94.78
15646;BME280;7922;43.622;1.476;2023-01-26T03:31:17;100817.13;;;0.67;95.01
15646;BME280;7922;43.622;1.476;2023-01-26T03:33:42;100828.50;;;0.76;95.27
15646;BME280;7922;43.622;1.476;2023-01-26T03:36:07;100837.19;;;0.76;95.38
15646;BME280;7922;43.622;1.476;2023-01-26T03:38:32;100839.88;;;0.82;95.29
15646;BME280;7922;43.622;1.476;2023-01-26T03:40:58;100846.88;;;0.85;95.72
15646;BME280;7922;43.622;1.476;2023-01-26T03:43:23;100797.97;;;0.62;95.33
15646;BME280;7922;43.622;1.476;2023-01-26T03:45:48;100799.69;;;0.62;95.68
15646;BME280;7922;43.622;1.476;2023-01-26T03:48:13;100734.16;;;0.28;95.68
15646;BME280;7922;43.622;1.476;2023-01-26T03:50:39;100821.66;;;0.84;95.69
15646;BME280;7922;43.622;1.476;2023-01-26T03:53:22;100814.63;;;0.80;96.09
15646;BME280;7922;43.622;1.476;2023-01-26T03:55:47;100832.19;;;0.91;96.48
15646;BME280;7922;43.622;1.476;2023-01-26T03:58:13;100669.50;;;-0.05;95.72
15646;BME280;7922;43.622;1.476;2023-01-26T04:00:38;100786.75;;;0.69;96.25
15646;BME280;7922;43.622;1.476;2023-01-26T04:03:03;100801.56;;;0.75;96.36
15646;BME280;7922;43.622;1.476;2023-01-26T04:05:28;100785.06;;;0.76;96.49
15646;BME280;7922;43.622;1.476;2023-01-26T04:07:54;100647.00;;;-0.02;96.36
15646;BME280;7922;43.622;1.476;2023-01-26T04:10:19;100698.56;;;0.30;96.44
15646;BME280;7922;43.622;1.476;2023-01-26T04:12:44;100807.88;;;0.97;96.64
15646;BME280;7922;43.622;1.476;2023-01-26T04:15:10;100780.72;;;0.77;96.09
15646;BME280;7922;43.622;1.476;2023-01-26T04:17:35;100742.44;;;0.69;96.00
15646;BME280;7922;43.622;1.476;2023-01-26T04:20:00;100795.75;;;1.04;96.49
15646;BME280;7922;43.622;1.476;2023-01-26T04:22:26;100790.53;;;1.02;96.11
15646;BME280;7922;43.622;1.476;2023-01-26T04:24:51;100711.88;;;0.56;95.78
15646;BME280;7922;43.622;1.476;2023-01-26T04:27:17;100600.03;;;-0.11;96.20
15646;BME280;7922;43.622;1.476;2023-01-26T04:29:42;100751.16;;;0.75;96.58
15646;BME280;7922;43.622;1.476;2023-01-26T04:32:07;100797.47;;;1.00;96.52
15646;BME280;7922;43.622;1.476;2023-01-26T04:34:32;100739.78;;;0.66;97.00
15646;BME280;7922;43.622;1.476;2023-01-26T04:36:58;100691.81;;;0.47;96.93
15646;BME280;7922;43.622;1.476;2023-01-26T04:39:23;100791.38;;;1.01;96.89
15646;BME280;7922;43.622;1.476;2023-01-26T04:41:48;100745.25;;;0.91;96.89
15646;BME280;7922;43.622;1.476;2023-01-26T04:44:13;100726.78;;;0.72;96.80
15646;BME280;7922;43.622;1.476;2023-01-26T04:46:39;100760.06;;;0.96;96.89
15646;BME280;7922;43.622;1.476;2023-01-26T04:49:04;100746.84;;;0.78;96.76
15646;BME280;7922;43.622;1.476;2023-01-26T04:51:30;100627.25;;;0.20;96.94
15646;BME280;7922;43.622;1.476;2023-01-26T04:53:55;100674.44;;;0.48;97.07
15646;BME280;7922;43.622;1.476;2023-01-26T04:56:23;100780.22;;;1.14;97.54
15646;BME280;7922;43.622;1.476;2023-01-26T04:58:50;100659.63;;;0.45;97.25
15646;BME280;7922;43.622;1.476;2023-01-26T05:01:15;100703.28;;;0.68;97.54
15646;BME280;7922;43.622;1.476;2023-01-26T05:03:41;100661.41;;;0.50;97.61
15646;BME280;7922;43.622;1.476;2023-01-26T05:06:06;100630.88;;;0.36;97.06
15646;BME280;7922;43.622;1.476;2023-01-26T05:08:31;100767.16;;;1.16;97.17
15646;BME280;7922;43.622;1.476;2023-01-26T05:10:57;100600.31;;;0.21;97.27
15646;BME280;7922;43.622;1.476;2023-01-26T05:13:22;100608.25;;;0.32;97.09
15646;BME280;7922;43.622;1.476;2023-01-26T05:15:47;100722.63;;;0.93;97.22
15646;BME280;7922;43.622;1.476;2023-01-26T05:18:13;100706.16;;;0.97;97.20
15646;BME280;7922;43.622;1.476;2023-01-26T05:20:38;100630.09;;;0.46;96.64
15646;BME280;7922;43.622;1.476;2023-01-26T05:23:03;100657.22;;;0.67;96.62
15646;BME280;7922;43.622;1.476;2023-01-26T05:25:29;100579.56;;;0.26;96.99
15646;BME280;7922;43.622;1.476;2023-01-26T05:27:54;100597.88;;;0.40;96.44
15646;BME280;7922;43.622;1.476;2023-01-26T05:30:20;100623.25;;;0.58;96.43
15646;BME280;7922;43.622;1.476;2023-01-26T05:32:45;100713.25;;;1.13;96.54
15646;BME280;7922;43.622;1.476;2023-01-26T05:35:10;100659.97;;;0.84;96.29
15646;BME280;7922;43.622;1.476;2023-01-26T05:37:36;100551.69;;;0.19;96.21
15646;BME280;7922;43.622;1.476;2023-01-26T05:40:02;100587.47;;;0.40;96.60
15646;BME280;7922;43.622;1.476;2023-01-26T05:42:27;100645.16;;;0.78;96.44
15646;BME280;7922;43.622;1.476;2023-01-26T05:44:52;100586.56;;;0.35;97.14
15646;BME280;7922;43.622;1.476;2023-01-26T05:47:18;100716.72;;;1.14;97.05
15646;BME280;7922;43.622;1.476;2023-01-26T05:49:43;100678.25;;;0.90;96.83
15646;BME280;7922;43.622;1.476;2023-01-26T05:52:09;100662.53;;;0.79;97.55
15646;BME280;7922;43.622;1.476;2023-01-26T05:54:35;100597.03;;;0.38;97.21
15646;BME280;7922;43.622;1.476;2023-01-26T05:57:01;100656.38;;;0.72;97.42
15646;BME280;7922;43.622;1.476;2023-01-26T05:59:26;100659.91;;;0.78;97.58
15646;BME280;7922;43.622;1.476;2023-01-26T06:01:52;100616.28;;;0.55;97.67
15646;BME280;7922;43.622;1.476;2023-01-26T06:04:18;100657.25;;;0.71;98.26
15646;BME280;7922;43.622;1.476;2023-01-26T06:06:43;100612.81;;;0.55;98.51
15646;BME280;7922;43.622;1.476;2023-01-26T06:09:09;100691.41;;;1.02;98.40
15646;BME280;7922;43.622;1.476;2023-01-26T06:11:34;100653.84;;;0.77;98.29
15646;BME280;7922;43.622;1.476;2023-01-26T06:14:00;100653.91;;;0.88;98.66
15646;BME280;7922;43.622;1.476;2023-01-26T06:16:25;100562.19;;;0.28;98.45
15646;BME280;7922;43.622;1.476;2023-01-26T06:18:50;100659.88;;;0.75;98.91
15646;BME280;7922;43.622;1.476;2023-01-26T06:21:15;100683.44;;;0.85;98.83
15646;BME280;7922;43.622;1.476;2023-01-26T06:23:41;100686.06;;;0.87;99.32
15646;BME280;7922;43.622;1.476;2023-01-26T06:26:07;100556.88;;;0.17;99.21
15646;BME280;7922;43.622;1.476;2023-01-26T06:28:32;100666.00;;;0.77;98.83
15646;BME280;7922;43.622;1.476;2023-01-26T06:31:01;100653.75;;;0.68;98.99
15646;BME280;7922;43.622;1.476;2023-01-26T06:33:27;100612.72;;;0.45;99.71
15646;BME280;7922;43.622;1.476;2023-01-26T06:35:52;100605.78;;;0.46;99.75
15646;BME280;7922;43.622;1.476;2023-01-26T06:38:17;100646.72;;;0.61;100.00
15646;BME280;7922;43.622;1.476;2023-01-26T06:40:43;100532.44;;;0.00;99.88
15646;BME280;7922;43.622;1.476;2023-01-26T06:43:08;100625.88;;;0.61;99.98
15646;BME280;7922;43.622;1.476;2023-01-26T06:45:33;100536.84;;;0.10;99.93
15646;BME280;7922;43.622;1.476;2023-01-26T06:47:58;100544.72;;;0.16;100.00
15646;BME280;7922;43.622;1.476;2023-01-26T06:50:26;100532.53;;;0.12;100.00
15646;BME280;7922;43.622;1.476;2023-01-26T06:52:58;100612.81;;;0.58;100.00
15646;BME280;7922;43.622;1.476;2023-01-26T06:55:41;100548.25;;;0.24;99.64
15646;BME280;7922;43.622;1.476;2023-01-26T06:58:07;100640.81;;;0.77;100.00
15646;BME280;7922;43.622;1.476;2023-01-26T07:00:32;100530.81;;;0.14;100.00
15646;BME280;7922;43.622;1.476;2023-01-26T07:02:57;100505.59;;;0.09;99.10
15646;BME280;7922;43.622;1.476;2023-01-26T07:05:22;100626.88;;;0.74;99.50
15646;BME280;7922;43.622;1.476;2023-01-26T07:07:48;100619.03;;;0.74;99.50
15646;BME280;7922;43.622;1.476;2023-01-26T07:10:13;100676.66;;;1.09;99.05
15646;BME280;7922;43.622;1.476;2023-01-26T07:12:44;100661.81;;;0.97;99.08
15646;BME280;7922;43.622;1.476;2023-01-26T07:15:10;100650.50;;;0.96;99.16
15646;BME280;7922;43.622;1.476;2023-01-26T07:17:37;100592.84;;;0.60;98.50
15646;BME280;7922;43.622;1.476;2023-01-26T07:20:03;100632.09;;;0.78;98.84
15646;BME280;7922;43.622;1.476;2023-01-26T07:22:29;100629.50;;;0.80;98.72
15646;BME280;7922;43.622;1.476;2023-01-26T07:24:54;100650.53;;;1.01;99.40
15646;BME280;7922;43.622;1.476;2023-01-26T07:27:20;100655.75;;;1.00;98.36
15646;BME280;7922;43.622;1.476;2023-01-26T07:29:45;100666.22;;;1.07;98.72
15646;BME280;7922;43.622;1.476;2023-01-26T07:32:10;100668.06;;;1.20;98.33
15646;BME280;7922;43.622;1.476;2023-01-26T07:34:36;100696.78;;;1.25;98.33
15646;BME280;7922;43.622;1.476;2023-01-26T07:37:01;100674.94;;;1.12;98.17
15646;BME280;7922;43.622;1.476;2023-01-26T07:39:26;100691.50;;;1.14;98.15
15646;BME280;7922;43.622;1.476;2023-01-26T07:41:51;100544.91;;;0.38;97.65
15646;BME280;7922;43.622;1.476;2023-01-26T07:44:17;100570.25;;;0.57;97.45
15646;BME280;7922;43.622;1.476;2023-01-26T07:46:42;100631.38;;;0.98;97.39
15646;BME280;7922;43.622;1.476;2023-01-26T07:49:07;100599.88;;;0.68;97.43
15646;BME280;7922;43.622;1.476;2023-01-26T07:51:33;100530.13;;;0.38;97.08
15646;BME280;7922;43.622;1.476;2023-01-26T07:53:58;100605.19;;;0.82;96.50
15646;BME280;7922;43.622;1.476;2023-01-26T07:56:23;100562.41;;;0.56;96.98
15646;BME280;7922;43.622;1.476;2023-01-26T07:58:53;100590.38;;;0.74;97.02
15646;BME280;7922;43.622;1.476;2023-01-26T08:01:19;100629.72;;;1.06;96.78
15646;BME280;7922;43.622;1.476;2023-01-26T08:03:44;100582.56;;;0.78;96.94
15646;BME280;7922;43.622;1.476;2023-01-26T08:06:11;100689.97;;;1.42;96.51
15646;BME280;7922;43.622;1.476;2023-01-26T08:08:36;100572.09;;;0.70;96.37
15646;BME280;7922;43.622;1.476;2023-01-26T08:11:02;100642.75;;;1.07;96.43
15646;BME280;7922;43.622;1.476;2023-01-26T08:13:29;100563.34;;;0.64;96.66
15646;BME280;7922;43.622;1.476;2023-01-26T08:15:59;100635.81;;;1.09;95.97
15646;BME280;7922;43.622;1.476;2023-01-26T08:18:24;100648.00;;;1.12;96.73
15646;BME280;7922;43.622;1.476;2023-01-26T08:20:53;100597.41;;;0.90;96.63
15646;BME280;7922;43.622;1.476;2023-01-26T08:23:19;100567.75;;;0.76;95.74
15646;BME280;7922;43.622;1.476;2023-01-26T08:25:45;100597.44;;;0.93;95.85
15646;BME280;7922;43.622;1.476;2023-01-26T08:28:10;100668.06;;;1.22;95.44
15646;BME280;7922;43.622;1.476;2023-01-26T08:30:36;100568.56;;;0.62;95.56
15646;BME280;7922;43.622;1.476;2023-01-26T08:33:02;100301.78;;;-0.86;95.50
15646;BME280;7922;43.622;1.476;2023-01-26T08:35:28;100668.97;;;1.29;95.83
15646;BME280;7922;43.622;1.476;2023-01-26T08:37:54;100633.25;;;1.17;95.61
15646;BME280;7922;43.622;1.476;2023-01-26T08:40:20;100648.94;;;1.23;95.27
15646;BME280;7922;43.622;1.476;2023-01-26T08:42:45;100699.59;;;1.53;95.30
15646;BME280;7922;43.622;1.476;2023-01-26T08:45:10;100655.94;;;1.29;95.34
15646;BME280;7922;43.622;1.476;2023-01-26T08:47:36;100626.28;;;1.16;95.05
15646;BME280;7922;43.622;1.476;2023-01-26T08:50:01;100671.63;;;1.33;95.19
15646;BME280;7922;43.622;1.476;2023-01-26T08:52:26;100564.22;;;0.69;94.93
15646;BME280;7922;43.622;1.476;2023-01-26T08:54:51;100669.84;;;1.25;95.46
15646;BME280;7922;43.622;1.476;2023-01-26T08:57:17;100659.38;;;1.23;95.60
15646;BME280;7922;43.622;1.476;2023-01-26T08:59:42;100567.81;;;0.82;95.41
15646;BME280;7922;43.622;1.476;2023-01-26T09:02:08;100543.38;;;0.67;95.19
15646;BME280;7922;43.622;1.476;2023-01-26T09:04:33;100628.88;;;1.13;95.27
15646;BME280;7922;43.622;1.476;2023-01-26T09:06:58;100563.53;;;0.93;94.70
15646;BME280;7922;43.622;1.476;2023-01-26T09:09:24;100573.88;;;0.79;95.29
15646;BME280;7922;43.622;1.476;2023-01-26T09:11:49;100530.28;;;0.60;94.86
15646;BME280;7922;43.622;1.476;2023-01-26T09:14:14;100610.66;;;1.20;95.11
15646;BME280;7922;43.622;1.476;2023-01-26T09:16:40;100650.00;;;1.53;94.60
15646;BME280;7922;43.622;1.476;2023-01-26T09:19:05;100480.78;;;0.60;94.55
15646;BME280;7922;43.622;1.476;2023-01-26T09:21:30;100530.53;;;1.00;94.10
15646;BME280;7922;43.622;1.476;2023-01-26T09:23:55;100609.06;;;1.47;93.61
15646;BME280;7922;43.622;1.476;2023-01-26T09:26:21;100643.06;;;1.67;93.37
15646;BME280;7922;43.622;1.476;2023-01-26T09:28:49;100509.56;;;0.81;92.97
15646;BME280;7922;43.622;1.476;2023-01-26T09:31:15;100636.09;;;1.60;93.15
15646;BME280;7922;43.622;1.476;2023-01-26T09:33:40;100654.47;;;1.78;92.74
15646;BME280;7922;43.622;1.476;2023-01-26T09:36:08;100644.81;;;1.66;92.30
15646;BME280;7922;43.622;1.476;2023-01-26T09:38:33;100614.28;;;1.50;92.58
15646;BME280;7922;43.622;1.476;2023-01-26T09:41:28;100664.94;;;1.86;91.92
15646;BME280;7922;43.622;1.476;2023-01-26T09:44:03;100598.59;;;1.47;91.82
15646;BME280;7922;43.622;1.476;2023-01-26T09:46:43;100679.72;;;1.82;92.24
15646;BME280;7922;43.622;1.476;2023-01-26T09:49:20;100685.00;;;1.99;92.19
15646;BME280;7922;43.622;1.476;2023-01-26T09:51:52;100552.34;;;1.15;91.49
15646;BME280;7922;43.622;1.476;2023-01-26T09:56:44;100370.13;;;0.04;90.64
15646;BME280;7922;43.622;1.476;2023-01-26T09:59:43;100686.78;;;2.08;90.66
15646;BME280;7922;43.622;1.476;2023-01-26T10:04:56;100557.72;;;1.52;89.61
15646;BME280;7922;43.622;1.476;2023-01-26T10:07:22;100549.91;;;1.49;89.44
15646;BME280;7922;43.622;1.476;2023-01-26T10:09:49;100676.44;;;2.58;88.87
15646;BME280;7922;43.622;1.476;2023-01-26T10:12:25;100562.22;;;2.08;88.17
15646;BME280;7922;43.622;1.476;2023-01-26T10:15:08;100560.47;;;2.03;88.20
15646;BME280;7922;43.622;1.476;2023-01-26T10:17:42;100531.66;;;1.69;88.17
15646;BME280;7922;43.622;1.476;2023-01-26T10:22:51;100572.66;;;1.85;88.05
15646;BME280;7922;43.622;1.476;2023-01-26T10:25:21;100647.59;;;2.12;88.37
15646;BME280;7922;43.622;1.476;2023-01-26T10:27:51;100532.50;;;1.54;88.84
15646;BME280;7922;43.622;1.476;2023-01-26T10:30:18;100631.00;;;2.03;88.51
15646;BME280;7922;43.622;1.476;2023-01-26T10:32:45;100651.09;;;2.24;88.04
15646;BME280;7922;43.622;1.476;2023-01-26T10:35:19;100668.53;;;2.20;89.10
15646;BME280;7922;43.622;1.476;2023-01-26T10:37:48;100678.13;;;2.26;89.04
15646;BME280;7922;43.622;1.476;2023-01-26T10:40:13;100666.78;;;2.27;89.14
15646;BME280;7922;43.622;1.476;2023-01-26T10:42:39;100672.03;;;2.31;88.64
15646;BME280;7922;43.622;1.476;2023-01-26T10:45:24;100637.97;;;1.95;88.25
15646;BME280;7922;43.622;1.476;2023-01-26T10:50:40;100624.94;;;2.11;88.83
15646;BME280;7922;43.622;1.476;2023-01-26T10:53:05;100610.16;;;2.15;88.05
15646;BME280;7922;43.622;1.476;2023-01-26T10:55:31;100540.41;;;1.79;88.08
15646;BME280;7922;43.622;1.476;2023-01-26T10:57:57;100625.84;;;2.35;87.79
15646;BME280;7922;43.622;1.476;2023-01-26T11:00:28;100529.03;;;1.66;87.18
15646;BME280;7922;43.622;1.476;2023-01-26T11:05:26;100551.75;;;1.87;87.61
15646;BME280;7922;43.622;1.476;2023-01-26T11:07:52;100601.44;;;2.24;86.86
15646;BME280;7922;43.622;1.476;2023-01-26T11:12:46;100618.03;;;2.41;86.34
15646;BME280;7922;43.622;1.476;2023-01-26T11:15:16;100637.19;;;2.54;85.97
15646;BME280;7922;43.622;1.476;2023-01-26T11:17:54;100641.56;;;2.44;86.21
15646;BME280;7922;43.622;1.476;2023-01-26T11:20:52;100638.06;;;2.60;86.04
15646;BME280;7922;43.622;1.476;2023-01-26T11:26:20;100613.69;;;2.40;85.51
15646;BME280;7922;43.622;1.476;2023-01-26T11:32:03;100612.78;;;2.53;84.97
15646;BME280;7922;43.622;1.476;2023-01-26T11:34:43;100603.22;;;2.55;85.03
15646;BME280;7922;43.622;1.476;2023-01-26T11:40:15;100554.38;;;2.10;87.47
15646;BME280;7922;43.622;1.476;2023-01-26T11:42:40;100598.84;;;2.22;87.88
15646;BME280;7922;43.622;1.476;2023-01-26T11:45:24;100479.44;;;1.64;87.27
15646;BME280;7922;43.622;1.476;2023-01-26T11:56:23;100592.75;;;2.49;86.74
15646;BME280;7922;43.622;1.476;2023-01-26T11:58:59;100522.16;;;2.41;85.35
15646;BME280;7922;43.622;1.476;2023-01-26T12:01:41;100542.19;;;2.65;84.13
15646;BME280;7922;43.622;1.476;2023-01-26T12:04:19;100570.03;;;3.06;83.66
15646;BME280;7922;43.622;1.476;2023-01-26T12:06:57;100480.31;;;2.41;83.68
15646;BME280;7922;43.622;1.476;2023-01-26T12:12:23;100565.63;;;3.08;82.33
15646;BME280;7922;43.622;1.476;2023-01-26T12:15:12;100546.47;;;3.05;82.08
15646;BME280;7922;43.622;1.476;2023-01-26T12:17:57;100502.91;;;2.79;81.48
15646;BME280;7922;43.622;1.476;2023-01-26T12:22:59;100435.03;;;2.36;81.42
15646;BME280;7922;43.622;1.476;2023-01-26T12:28:18;100540.25;;;3.35;81.69
15646;BME280;7922;43.622;1.476;2023-01-26T12:30:52;100423.56;;;2.83;80.20
15646;BME280;7922;43.622;1.476;2023-01-26T12:33:20;100448.88;;;2.75;80.28
15646;BME280;7922;43.622;1.476;2023-01-26T12:41:36;100501.09;;;3.07;81.40
15646;BME280;7922;43.622;1.476;2023-01-26T12:46:51;100485.38;;;3.12;81.35
15646;BME280;7922;43.622;1.476;2023-01-26T12:49:22;100384.41;;;2.57;80.66
15646;BME280;7922;43.622;1.476;2023-01-26T12:51:53;100466.16;;;3.14;80.35
15646;BME280;7922;43.622;1.476;2023-01-26T12:54:48;100525.38;;;3.43;79.96
15646;BME280;7922;43.622;1.476;2023-01-26T12:57:20;100535.78;;;3.61;79.51
15646;BME280;7922;43.622;1.476;2023-01-26T12:59:50;100489.69;;;3.22;80.19
15646;BME280;7922;43.622;1.476;2023-01-26T13:04:42;100397.34;;;2.93;79.15
15646;BME280;7922;43.622;1.476;2023-01-26T13:07:30;100379.09;;;2.85;79.20
15646;BME280;7922;43.622;1.476;2023-01-26T13:12:53;100468.81;;;3.08;79.47
15646;BME280;7922;43.622;1.476;2023-01-26T13:15:21;100504.47;;;3.35;79.83
15646;BME280;7922;43.622;1.476;2023-01-26T13:17:52;100362.69;;;2.48;79.31
15646;BME280;7922;43.622;1.476;2023-01-26T13:20:26;100461.06;;;2.82;80.10
15646;BME280;7922;43.622;1.476;2023-01-26T13:22:53;100372.34;;;2.20;80.97
15646;BME280;7922;43.622;1.476;2023-01-26T13:25:30;100447.97;;;2.79;80.32
15646;BME280;7922;43.622;1.476;2023-01-26T13:28:01;100500.09;;;3.36;80.64
15646;BME280;7922;43.622;1.476;2023-01-26T13:35:22;100355.69;;;2.51;79.98
15646;BME280;7922;43.622;1.476;2023-01-26T13:42:57;100487.06;;;3.28;77.82
15646;BME280;7922;43.622;1.476;2023-01-26T13:48:13;100365.25;;;2.55;78.18
15646;BME280;7922;43.622;1.476;2023-01-26T13:50:39;100442.72;;;2.85;77.92
15646;BME280;7922;43.622;1.476;2023-01-26T13:53:34;100482.66;;;3.30;78.06
15646;BME280;7922;43.622;1.476;2023-01-26T13:56:03;100393.13;;;2.64;78.39
15646;BME280;7922;43.622;1.476;2023-01-26T13:58:29;100501.06;;;3.20;78.54
15646;BME280;7922;43.622;1.476;2023-01-26T14:03:28;100354.84;;;2.35;78.68
15646;BME280;7922;43.622;1.476;2023-01-26T14:05:56;100316.63;;;1.99;78.92
15646;BME280;7922;43.622;1.476;2023-01-26T14:08:23;100455.81;;;2.92;79.52
15646;BME280;7922;43.622;1.476;2023-01-26T14:10:49;100482.69;;;3.23;79.22
15646;BME280;7922;43.622;1.476;2023-01-26T14:13:23;100457.47;;;3.05;79.63
15646;BME280;7922;43.622;1.476;2023-01-26T14:15:55;100383.56;;;2.58;79.74
15646;BME280;7922;43.622;1.476;2023-01-26T14:18:21;100324.44;;;2.14;80.37
15646;BME280;7922;43.622;1.476;2023-01-26T14:20:46;100347.00;;;2.35;79.64
15646;BME280;7922;43.622;1.476;2023-01-26T14:23:14;100458.38;;;3.01;80.14
15646;BME280;7922;43.622;1.476;2023-01-26T14:25:58;100489.69;;;3.24;79.22